Time;durP1;ratioP1;P1;durP2;ratioP2;P2;SDS_P1;SDS_P2;PMS_P1;PMS_P2;Temp;Humidity;BMP_temperature;BMP_pressure;BME280_temperature;BME280_humidity;BME280_pressure;Samples;Min_cycle;Max_cycle;Signal;HPM_P1;HPM_P2
2022/07/17 00:02:44;;;;;;;4.07;1.70;;;14.60;99.90;;;;;;5047227;28;20216;-78
2022/07/17 00:05:36;;;;;;;1.85;1.60;;;14.70;99.90;;;;;;5032763;28;20212;-78
2022/07/17 00:08:25;;;;;;;4.03;1.80;;;14.70;99.90;;;;;;5047947;28;20217;-78
2022/07/17 00:11:14;;;;;;;5.07;2.08;;;14.60;99.90;;;;;;5047992;28;20731;-79
2022/07/17 00:14:02;;;;;;;4.32;1.77;;;14.70;99.90;;;;;;5037117;28;20301;-79
2022/07/17 00:16:51;;;;;;;4.50;1.77;;;14.70;99.90;;;;;;5029795;28;20217;-79
2022/07/17 00:19:40;;;;;;;4.00;2.08;;;14.70;99.90;;;;;;5049136;28;20751;-77
2022/07/17 00:22:30;;;;;;;3.17;1.60;;;14.70;99.90;;;;;;5047508;28;20224;-79
2022/07/17 00:25:21;;;;;;;4.97;1.70;;;14.70;99.90;;;;;;5036265;28;20232;-78
2022/07/17 00:28:09;;;;;;;2.85;1.70;;;14.70;99.90;;;;;;5055841;28;20224;-79
2022/07/17 00:30:58;;;;;;;6.55;2.10;;;14.60;99.90;;;;;;5055029;28;20229;-78
2022/07/17 00:33:47;;;;;;;3.45;2.00;;;14.60;99.90;;;;;;5050895;28;20228;-79
2022/07/17 00:36:36;;;;;;;3.50;1.80;;;14.70;99.90;;;;;;5047155;28;21042;-79
2022/07/17 00:39:26;;;;;;;3.15;1.92;;;14.70;99.90;;;;;;5043883;28;20216;-79
2022/07/17 00:42:16;;;;;;;6.22;1.90;;;14.60;99.90;;;;;;5046418;28;20216;-79
2022/07/17 00:45:05;;;;;;;3.67;1.90;;;14.70;99.90;;;;;;5039685;28;20653;-79
2022/07/17 00:47:57;;;;;;;4.82;1.92;;;14.70;99.90;;;;;;5030605;28;20216;-79
2022/07/17 00:50:45;;;;;;;6.57;2.20;;;14.70;99.90;;;;;;5056711;28;20225;-79
2022/07/17 00:53:35;;;;;;;4.03;2.25;;;14.70;99.90;;;;;;5042574;28;20220;-78
2022/07/17 00:56:27;;;;;;;4.05;2.10;;;14.70;99.90;;;;;;5063701;28;20216;-78
2022/07/17 00:59:16;;;;;;;4.20;2.00;;;14.70;99.90;;;;;;5066731;28;20231;-79
2022/07/17 01:02:05;;;;;;;6.22;2.17;;;14.60;99.90;;;;;;5080365;28;20219;-79
2022/07/17 01:04:54;;;;;;;4.88;1.95;;;14.60;99.90;;;;;;5046840;28;20361;-78
2022/07/17 01:07:44;;;;;;;3.80;1.88;;;14.60;99.90;;;;;;5068125;28;20234;-78
2022/07/17 01:10:33;;;;;;;4.20;2.03;;;14.40;99.90;;;;;;5061878;28;20960;-79
2022/07/17 01:13:22;;;;;;;2.03;1.80;;;14.50;99.90;;;;;;5047833;28;20324;-78
2022/07/17 01:16:11;;;;;;;4.80;1.90;;;14.40;99.90;;;;;;5070931;28;20224;-78
2022/07/17 01:19:01;;;;;;;1.85;1.60;;;14.40;99.90;;;;;;5060551;28;20217;-78
2022/07/17 01:21:52;;;;;;;3.75;1.90;;;14.40;99.90;;;;;;5060765;28;20224;-79
2022/07/17 01:24:42;;;;;;;6.75;2.30;;;14.40;99.90;;;;;;5045962;28;20519;-78
2022/07/17 01:27:31;;;;;;;6.47;2.10;;;14.40;99.90;;;;;;5048227;28;20229;-78
2022/07/17 01:30:19;;;;;;;4.88;2.00;;;14.20;99.90;;;;;;5065075;28;20220;-79
2022/07/17 01:33:11;;;;;;;1.73;1.60;;;14.30;99.90;;;;;;5069619;28;20296;-79
2022/07/17 01:35:59;;;;;;;4.05;2.10;;;14.10;99.90;;;;;;5065079;28;20243;-79
2022/07/17 01:38:50;;;;;;;5.07;2.33;;;14.10;99.90;;;;;;5065436;28;20674;-78
2022/07/17 01:41:39;;;;;;;5.13;2.58;;;14.10;99.90;;;;;;5065220;28;20235;-78
2022/07/17 01:44:28;;;;;;;3.47;2.17;;;14.10;99.90;;;;;;5066662;28;20215;-78
2022/07/17 01:47:16;;;;;;;4.93;2.50;;;14.00;99.90;;;;;;5062442;28;20827;-79
2022/07/17 01:50:06;;;;;;;7.35;2.63;;;14.00;99.90;;;;;;5063460;28;21507;-78
2022/07/17 01:52:55;;;;;;;6.35;2.65;;;14.10;99.90;;;;;;5065836;28;20220;-78
2022/07/17 01:55:45;;;;;;;5.35;2.60;;;14.00;99.90;;;;;;5064426;28;20220;-79
2022/07/17 01:58:34;;;;;;;4.13;2.65;;;14.00;99.90;;;;;;5067404;28;20219;-78
2022/07/17 02:01:22;;;;;;;5.97;2.65;;;14.00;99.90;;;;;;5051130;28;20224;-78
2022/07/17 02:04:11;;;;;;;4.88;2.80;;;14.00;99.90;;;;;;5049879;28;20666;-78
2022/07/17 02:07:00;;;;;;;4.40;2.58;;;14.00;99.90;;;;;;5062377;28;20243;-79
2022/07/17 02:09:48;;;;;;;5.65;2.67;;;14.00;99.90;;;;;;5063527;28;20226;-78
2022/07/17 02:12:38;;;;;;;10.23;2.80;;;14.00;99.90;;;;;;5063005;28;20227;-78
2022/07/17 02:15:27;;;;;;;6.22;2.35;;;14.00;99.90;;;;;;5065335;28;20224;-78
2022/07/17 02:18:15;;;;;;;7.18;3.15;;;14.00;99.90;;;;;;5063747;28;20566;-77
2022/07/17 02:21:04;;;;;;;5.30;2.80;;;14.10;99.90;;;;;;5060828;28;20216;-78
2022/07/17 02:23:53;;;;;;;4.22;2.60;;;14.10;99.90;;;;;;5064111;28;20578;-77
2022/07/17 02:26:42;;;;;;;4.90;2.70;;;14.20;99.90;;;;;;5051384;28;20535;-78
2022/07/17 02:29:32;;;;;;;6.93;2.90;;;14.10;99.90;;;;;;5065089;28;20212;-78
2022/07/17 02:32:21;;;;;;;6.13;2.50;;;14.10;99.90;;;;;;5065407;28;20231;-78
2022/07/17 02:35:11;;;;;;;10.00;2.80;;;14.10;99.90;;;;;;5064981;28;20223;-77
2022/07/17 02:38:00;;;;;;;9.18;3.28;;;14.20;99.90;;;;;;5051798;28;20220;-77
2022/07/17 02:40:50;;;;;;;5.43;2.85;;;14.20;99.90;;;;;;5061344;28;20213;-77
2022/07/17 02:43:39;;;;;;;6.22;3.20;;;14.20;99.90;;;;;;5062932;28;20608;-78
2022/07/17 02:46:28;;;;;;;6.00;3.15;;;14.10;99.90;;;;;;5040536;28;20304;-78
2022/07/17 02:49:17;;;;;;;5.15;3.22;;;14.10;99.90;;;;;;5063862;28;20231;-78
2022/07/17 02:52:06;;;;;;;4.15;2.67;;;14.00;99.90;;;;;;5063124;28;20707;-78
2022/07/17 02:54:54;;;;;;;7.05;3.33;;;14.10;99.90;;;;;;5066969;28;20216;-78
2022/07/17 02:57:46;;;;;;;4.55;2.50;;;14.10;99.90;;;;;;5066545;28;20231;-78
2022/07/17 03:00:34;;;;;;;6.55;2.90;;;14.10;99.90;;;;;;5070327;28;20236;-78
2022/07/17 03:03:24;;;;;;;6.38;3.05;;;14.00;99.90;;;;;;5053564;28;20223;-78
2022/07/17 03:06:14;;;;;;;7.40;3.05;;;14.20;99.90;;;;;;5052227;28;20754;-77
2022/07/17 03:09:02;;;;;;;5.03;3.00;;;14.10;99.90;;;;;;5068161;28;20223;-78
2022/07/17 03:11:52;;;;;;;6.95;2.97;;;14.20;99.90;;;;;;5064351;28;20227;-77
2022/07/17 03:14:41;;;;;;;4.97;3.30;;;14.20;99.90;;;;;;5052145;28;20227;-78
2022/07/17 03:17:30;;;;;;;5.10;3.00;;;14.20;99.90;;;;;;5046826;28;20235;-78
2022/07/17 03:20:19;;;;;;;5.03;3.00;;;14.30;99.90;;;;;;5063241;28;20243;-78
2022/07/17 03:23:08;;;;;;;5.32;2.90;;;14.30;99.90;;;;;;5065881;28;20539;-77
2022/07/17 03:25:57;;;;;;;6.32;2.70;;;14.40;99.90;;;;;;5064232;28;20228;-78
2022/07/17 03:28:45;;;;;;;3.85;3.00;;;14.40;99.90;;;;;;5066554;28;20227;-78
2022/07/17 03:31:34;;;;;;;4.22;2.90;;;14.40;99.90;;;;;;5075237;28;20228;-78
2022/07/17 03:34:23;;;;;;;11.45;3.47;;;14.50;99.90;;;;;;5050992;28;20220;-78
2022/07/17 03:37:13;;;;;;;7.25;3.05;;;14.60;99.90;;;;;;5051835;28;20220;-77
2022/07/17 03:40:01;;;;;;;8.50;2.75;;;14.60;99.90;;;;;;5077366;28;20235;-78
2022/07/17 03:42:50;;;;;;;11.27;3.10;;;14.60;99.90;;;;;;5072760;28;20299;-78
2022/07/17 03:45:39;;;;;;;5.35;2.90;;;14.60;99.90;;;;;;5062094;28;20227;-77
2022/07/17 03:48:29;;;;;;;4.75;2.95;;;14.70;99.90;;;;;;5066426;28;20216;-77
2022/07/17 03:51:18;;;;;;;6.30;2.90;;;14.70;99.90;;;;;;5065923;28;20818;-77
2022/07/17 03:54:07;;;;;;;5.10;2.90;;;14.80;99.90;;;;;;5043961;28;20223;-77
2022/07/17 03:56:57;;;;;;;5.10;2.80;;;14.70;99.90;;;;;;5042184;28;20217;-78
2022/07/17 03:59:45;;;;;;;5.70;3.00;;;14.80;99.90;;;;;;5036870;28;20224;-77
2022/07/17 04:02:34;;;;;;;5.93;2.90;;;14.80;99.90;;;;;;5060792;28;20227;-77
2022/07/17 04:05:23;;;;;;;3.63;2.67;;;14.80;99.90;;;;;;5053566;28;20224;-77
2022/07/17 04:08:12;;;;;;;5.95;2.88;;;14.80;99.90;;;;;;5038331;28;20225;-77
2022/07/17 04:11:02;;;;;;;4.97;3.10;;;14.70;99.90;;;;;;5046095;28;20708;-78
2022/07/17 04:13:57;;;;;;;5.75;2.83;;;14.80;99.90;;;;;;5047691;28;20225;-77
2022/07/17 04:16:46;;;;;;;8.75;2.63;;;14.80;99.90;;;;;;5046444;28;20225;-77
2022/07/17 04:19:35;;;;;;;5.93;2.80;;;14.90;99.90;;;;;;5048666;28;20239;-77
2022/07/17 04:22:23;;;;;;;5.75;2.97;;;14.90;99.90;;;;;;5038102;28;20292;-79
2022/07/17 04:25:12;;;;;;;4.32;2.83;;;14.80;99.90;;;;;;5047546;28;20231;-78
2022/07/17 04:28:02;;;;;;;6.38;2.70;;;14.80;99.90;;;;;;5052850;28;20548;-76
2022/07/17 04:30:52;;;;;;;9.30;2.90;;;14.90;99.90;;;;;;5063574;28;20288;-77
2022/07/17 04:33:40;;;;;;;6.88;2.90;;;15.10;99.90;;;;;;5060835;28;20233;-77
2022/07/17 04:36:29;;;;;;;4.35;2.67;;;15.10;99.90;;;;;;5043936;28;20219;-77
2022/07/17 04:39:17;;;;;;;6.90;2.50;;;15.20;99.90;;;;;;5049836;28;20240;-76
2022/07/17 04:42:06;;;;;;;4.90;2.30;;;15.20;99.90;;;;;;5035341;28;20213;-77
2022/07/17 04:44:56;;;;;;;6.25;2.55;;;15.20;99.90;;;;;;5027753;28;20221;-78
2022/07/17 04:47:44;;;;;;;8.38;2.90;;;15.30;99.90;;;;;;5029999;28;20229;-78
2022/07/17 04:50:33;;;;;;;6.85;2.60;;;15.20;99.90;;;;;;5045204;28;20273;-78
2022/07/17 04:53:22;;;;;;;5.75;2.47;;;15.50;99.90;;;;;;5058542;28;20236;-78
2022/07/17 04:56:12;;;;;;;6.13;2.28;;;15.50;99.90;;;;;;5048603;28;20215;-78
2022/07/17 04:59:01;;;;;;;3.08;2.35;;;15.50;99.90;;;;;;5063983;28;20572;-78
2022/07/17 05:01:51;;;;;;;5.53;2.40;;;15.50;99.90;;;;;;5062791;28;20247;-78
2022/07/17 05:04:40;;;;;;;6.57;1.90;;;15.70;99.90;;;;;;5053675;28;20243;-78
2022/07/17 05:07:28;;;;;;;8.48;2.10;;;15.90;99.90;;;;;;5051072;28;20232;-78
2022/07/17 05:10:17;;;;;;;5.05;2.28;;;15.90;99.90;;;;;;5064631;28;20231;-77
2022/07/17 05:13:13;;;;;;;3.15;1.90;;;16.00;99.90;;;;;;5065582;28;20220;-78
2022/07/17 05:16:02;;;;;;;4.05;1.77;;;16.10;99.90;;;;;;5079278;28;20821;-78
2022/07/17 05:18:52;;;;;;;4.97;1.88;;;16.20;99.90;;;;;;5062477;28;20528;-78
2022/07/17 05:21:41;;;;;;;5.43;1.85;;;16.30;99.90;;;;;;5063393;28;20610;-79
2022/07/17 05:24:30;;;;;;;9.18;2.42;;;16.50;99.90;;;;;;5049480;28;20224;-78
2022/07/17 05:27:18;;;;;;;3.55;1.80;;;16.60;99.90;;;;;;5061924;28;20326;-78
2022/07/17 05:30:08;;;;;;;5.20;1.80;;;16.70;99.90;;;;;;5067075;28;20224;-78
2022/07/17 05:32:56;;;;;;;3.55;1.70;;;16.60;99.90;;;;;;5065198;28;20223;-78
2022/07/17 05:35:46;;;;;;;7.00;1.75;;;16.50;99.90;;;;;;5062403;28;20221;-78
2022/07/17 05:38:35;;;;;;;6.28;1.92;;;16.60;99.90;;;;;;5065696;28;20235;-78
2022/07/17 05:41:24;;;;;;;8.30;2.20;;;16.90;99.90;;;;;;5066783;28;20219;-79
2022/07/17 05:44:13;;;;;;;3.67;1.98;;;17.00;99.90;;;;;;5065947;28;20224;-78
2022/07/17 05:47:01;;;;;;;2.80;1.90;;;16.90;99.90;;;;;;5063134;28;20223;-79
2022/07/17 05:49:51;;;;;;;5.68;2.17;;;16.80;99.90;;;;;;5062604;28;20231;-79
2022/07/17 05:52:41;;;;;;;6.20;1.65;;;16.80;99.90;;;;;;5067037;28;20227;-79
2022/07/17 05:55:30;;;;;;;4.93;2.13;;;16.80;99.90;;;;;;5064899;28;20835;-78
2022/07/17 05:58:19;;;;;;;4.88;1.88;;;16.90;99.90;;;;;;5050172;28;20236;-80
2022/07/17 06:01:07;;;;;;;7.15;2.25;;;16.90;99.90;;;;;;5064082;28;20216;-79
2022/07/17 06:03:56;;;;;;;6.22;2.00;;;17.20;99.90;;;;;;5063556;28;20224;-79
2022/07/17 06:06:44;;;;;;;6.85;2.13;;;17.40;99.90;;;;;;5074817;28;20224;-80
2022/07/17 06:09:35;;;;;;;6.57;2.40;;;17.50;99.90;;;;;;5061816;28;20220;-77
2022/07/17 06:12:23;;;;;;;6.28;2.00;;;17.80;99.90;;;;;;5063640;28;20223;-78
2022/07/17 06:15:12;;;;;;;7.13;2.60;;;18.00;99.90;;;;;;5067012;28;20740;-78
2022/07/17 06:18:02;;;;;;;5.30;2.10;;;17.70;99.90;;;;;;5053824;28;20230;-79
2022/07/17 06:20:50;;;;;;;5.88;1.65;;;17.60;99.90;;;;;;5067630;28;20640;-80
2022/07/17 06:23:39;;;;;;;6.90;4.25;;;17.60;99.90;;;;;;5068066;28;20224;-80
2022/07/17 06:26:29;;;;;;;3.97;1.90;;;17.60;99.90;;;;;;5067596;28;20219;-79
2022/07/17 06:29:18;;;;;;;6.32;1.90;;;17.60;99.90;;;;;;5056447;28;20337;-79
2022/07/17 06:32:07;;;;;;;3.42;1.80;;;17.50;99.90;;;;;;5066917;28;20211;-79
2022/07/17 06:34:55;;;;;;;3.55;1.80;;;17.60;99.90;;;;;;5069836;28;20231;-79
2022/07/17 06:37:44;;;;;;;6.97;2.00;;;17.70;99.90;;;;;;5068694;28;20219;-79
2022/07/17 06:40:33;;;;;;;7.43;2.42;;;17.80;99.90;;;;;;5066042;28;20235;-79
2022/07/17 06:43:24;;;;;;;4.93;2.03;;;18.00;99.90;;;;;;5069878;28;20236;-79
2022/07/17 06:46:13;;;;;;;5.57;2.35;;;18.00;99.90;;;;;;5068479;28;20219;-79
2022/07/17 06:49:02;;;;;;;4.65;2.30;;;18.10;99.90;;;;;;5068298;28;20311;-79
2022/07/17 06:51:50;;;;;;;3.10;2.60;;;18.20;99.90;;;;;;5053467;28;20287;-79
2022/07/17 06:54:39;;;;;;;5.10;2.90;;;18.30;99.90;;;;;;5041549;28;20216;-81
2022/07/17 06:57:27;;;;;;;10.60;3.10;;;18.40;99.90;;;;;;5047514;28;20621;-79
2022/07/17 07:00:18;;;;;;;4.05;3.22;;;18.50;99.90;;;;;;5055961;28;20555;-79
2022/07/17 07:03:07;;;;;;;6.47;3.30;;;18.30;99.90;;;;;;5067654;28;20326;-80
2022/07/17 07:05:55;;;;;;;5.35;3.10;;;18.10;99.90;;;;;;5051253;28;20216;-79
2022/07/17 07:08:43;;;;;;;5.95;3.30;;;18.40;99.90;;;;;;5066274;28;20224;-79
2022/07/17 07:11:32;;;;;;;4.80;3.20;;;18.50;99.90;;;;;;5050918;28;20216;-79
2022/07/17 07:14:21;;;;;;;4.35;2.97;;;18.60;99.90;;;;;;5068819;28;20710;-79
2022/07/17 07:17:11;;;;;;;5.40;2.50;;;18.60;99.90;;;;;;5050877;28;20223;-79
2022/07/17 07:20:00;;;;;;;4.63;3.50;;;18.60;99.90;;;;;;5071423;28;20224;-79
2022/07/17 07:22:48;;;;;;;5.35;3.30;;;18.60;99.90;;;;;;5052593;28;20278;-79
2022/07/17 07:25:37;;;;;;;8.50;3.60;;;18.90;99.90;;;;;;5066618;28;20232;-79
2022/07/17 07:28:25;;;;;;;4.97;3.20;;;19.30;99.90;;;;;;5068836;28;20224;-79
2022/07/17 07:31:16;;;;;;;4.35;2.90;;;19.30;99.90;;;;;;5069317;28;20222;-80
2022/07/17 07:34:07;;;;;;;4.25;3.00;;;19.10;99.90;;;;;;5080370;28;20382;-79
2022/07/17 07:36:56;;;;;;;5.07;3.13;;;19.30;99.90;;;;;;5065340;28;20258;-79
2022/07/17 07:39:45;;;;;;;5.72;2.60;;;19.60;99.90;;;;;;5050528;28;20231;-79
2022/07/17 07:42:34;;;;;;;5.50;2.60;;;19.50;99.90;;;;;;5075747;28;20220;-79
2022/07/17 07:45:22;;;;;;;8.50;3.10;;;19.30;99.90;;;;;;5064422;28;20216;-79
2022/07/17 07:48:12;;;;;;;3.85;2.63;;;19.50;99.90;;;;;;5058220;28;20232;-79
2022/07/17 07:51:02;;;;;;;4.10;3.00;;;19.50;99.90;;;;;;5076137;28;20216;-79
2022/07/17 07:53:50;;;;;;;4.13;2.47;;;20.30;99.90;;;;;;5051483;28;20227;-80
2022/07/17 07:56:39;;;;;;;4.40;2.35;;;20.80;99.90;;;;;;5065715;28;20227;-79
2022/07/17 07:59:28;;;;;;;5.07;2.45;;;21.00;99.90;;;;;;5066696;28;20224;-81
2022/07/17 08:02:17;;;;;;;5.15;2.60;;;20.90;99.90;;;;;;5066637;28;20308;-79
2022/07/17 08:05:07;;;;;;;4.57;2.58;;;21.00;99.90;;;;;;5056527;28;20752;-79
2022/07/17 08:07:57;;;;;;;6.88;2.10;;;21.80;99.90;;;;;;5066317;28;20228;-80
2022/07/17 08:10:46;;;;;;;4.13;2.00;;;22.40;99.90;;;;;;5060589;28;20224;-79
2022/07/17 08:13:35;;;;;;;4.50;2.47;;;22.90;99.90;;;;;;5076984;28;20212;-80
2022/07/17 08:16:23;;;;;;;7.05;2.25;;;;;;;;;;5054714;28;20220;-81
2022/07/17 08:19:12;;;;;;;5.60;2.05;;;23.70;99.90;;;;;;5070988;28;20228;-79
2022/07/17 08:22:01;;;;;;;2.58;1.75;;;24.20;99.90;;;;;;5067060;28;20219;-79
2022/07/17 08:24:51;;;;;;;4.18;2.15;;;24.10;99.90;;;;;;5052616;28;20225;-79
2022/07/17 08:27:40;;;;;;;4.32;2.05;;;24.30;99.90;;;;;;5065456;28;20239;-79
2022/07/17 08:30:34;;;;;;;5.70;2.22;;;24.90;99.90;;;;;;5051181;28;20232;-79
2022/07/17 08:33:23;;;;;;;2.72;1.85;;;24.90;99.90;;;;;;5068104;28;20216;-80
2022/07/17 08:36:11;;;;;;;6.10;1.83;;;25.50;99.90;;;;;;5050705;28;20228;-80
2022/07/17 08:39:00;;;;;;;3.78;2.05;;;25.10;98.20;;;;;;5063059;28;20560;-79
2022/07/17 08:41:50;;;;;;;2.60;2.10;;;23.90;99.90;;;;;;5045436;28;20213;-79
2022/07/17 08:44:39;;;;;;;5.30;1.63;;;24.20;99.90;;;;;;5063607;28;20817;-80
2022/07/17 08:47:28;;;;;;;3.88;1.85;;;24.70;99.90;;;;;;5063416;28;20224;-79
2022/07/17 08:50:19;;;;;;;5.00;2.17;;;25.50;99.90;;;;;;5077656;28;20231;-77
2022/07/17 08:53:07;;;;;;;2.20;1.77;;;25.90;97.00;;;;;;5052647;28;20286;-80
2022/07/17 08:55:56;;;;;;;3.15;1.90;;;26.90;98.00;;;;;;5031050;28;20229;-79
2022/07/17 08:58:46;;;;;;;6.13;1.70;;;27.50;93.20;;;;;;5045479;28;20228;-77
2022/07/17 09:01:34;;;;;;;3.90;1.92;;;27.80;90.40;;;;;;5047174;28;20221;-78
2022/07/17 09:04:23;;;;;;;3.75;1.85;;;27.80;88.50;;;;;;5045450;28;20236;-78
2022/07/17 09:07:12;;;;;;;5.03;1.98;;;27.90;87.40;;;;;;5043034;28;20739;-79
2022/07/17 09:10:02;;;;;;;3.25;1.90;;;26.90;89.20;;;;;;5031361;28;20313;-79
2022/07/17 09:12:50;;;;;;;5.25;1.67;;;25.70;93.00;;;;;;5025291;28;20217;-79
2022/07/17 09:15:40;;;;;;;2.53;2.03;;;27.20;91.10;;;;;;5056006;28;20733;-78
2022/07/17 09:18:43;;;;;;;3.22;1.63;;;28.20;84.40;;;;;;5041200;28;20209;-79
2022/07/17 09:21:32;;;;;;;2.83;1.48;;;28.40;82.10;;;;;;5028796;28;20538;-79
2022/07/17 09:24:21;;;;;;;4.13;1.67;;;28.10;86.00;;;;;;5044760;28;20220;-79
2022/07/17 09:27:09;;;;;;;2.35;1.73;;;30.00;79.00;;;;;;5046243;28;20884;-79
2022/07/17 09:30:00;;;;;;;3.38;1.60;;;31.10;70.50;;;;;;5041978;28;20280;-79
2022/07/17 09:32:50;;;;;;;5.18;1.60;;;29.10;73.60;;;;;;5043658;28;20229;-79
2022/07/17 09:35:46;;;;;;;2.70;1.60;;;26.90;77.80;;;;;;5029131;28;20224;-79
2022/07/17 09:38:36;;;;;;;3.28;1.63;;;28.00;75.70;;;;;;5046088;28;20223;-79
2022/07/17 09:41:26;;;;;;;2.47;1.23;;;29.40;68.90;;;;;;5046609;28;20223;-79
2022/07/17 09:44:15;;;;;;;2.33;1.20;;;29.60;70.10;;;;;;5046836;28;20216;-79
2022/07/17 09:47:04;;;;;;;2.10;1.30;;;29.20;70.50;;;;;;5043191;28;20327;-79
2022/07/17 09:49:56;;;;;;;5.28;1.50;;;28.60;69.80;;;;;;5059069;28;20231;-79
2022/07/17 09:52:45;;;;;;;2.60;1.70;;;27.00;73.30;;;;;;5055943;28;20825;-78
2022/07/17 09:55:34;;;;;;;1.67;1.27;;;27.60;75.40;;;;;;5081321;28;20226;-79
2022/07/17 09:58:38;;;;;;;1.23;1.13;;;29.10;72.00;;;;;;5053182;28;20254;-79
2022/07/17 10:01:28;;;;;;;1.38;1.25;;;31.30;64.70;;;;;;5076044;28;20364;-79
2022/07/17 10:04:18;;;;;;;4.63;1.45;;;29.80;61.60;;;;;;5069872;28;20219;-79
2022/07/17 10:07:09;;;;;;;2.22;1.48;;;27.50;68.50;;;;;;5069596;28;20219;-79
2022/07/17 10:09:59;;;;;;;1.60;1.20;;;26.30;71.70;;;;;;5068730;28;20220;-79
2022/07/17 10:12:51;;;;;;;1.85;1.48;;;25.50;76.00;;;;;;5068166;28;20207;-79
2022/07/17 10:15:39;;;;;;;1.88;1.40;;;24.60;80.10;;;;;;5067874;28;20234;-78
2022/07/17 10:18:41;;;;;;;3.47;1.73;;;24.30;83.50;;;;;;5068335;28;20223;-78
2022/07/17 10:21:31;;;;;;;3.00;1.80;;;23.70;89.20;;;;;;5053696;28;20272;-78
2022/07/17 10:24:22;;;;;;;2.22;1.55;;;23.80;90.00;;;;;;5069775;28;20220;-78
2022/07/17 10:27:19;;;;;;;1.63;1.45;;;27.10;83.10;;;;;;5068160;28;20212;-77
2022/07/17 10:30:09;;;;;;;3.80;2.30;;;31.40;71.50;;;;;;5082455;28;20778;-79
2022/07/17 10:33:00;;;;;;;2.63;1.25;;;33.70;62.50;;;;;;5068794;28;20212;-79
2022/07/17 10:35:51;;;;;;;2.83;1.17;;;35.10;57.00;;;;;;5067282;28;20220;-80
2022/07/17 10:38:43;;;;;;;4.68;1.25;;;32.20;57.10;;;;;;5069682;28;20558;-78
2022/07/17 10:41:33;;;;;;;2.67;1.02;;;29.20;59.60;;;;;;5069395;28;20216;-78
2022/07/17 10:44:26;;;;;;;2.20;1.23;;;27.30;66.50;;;;;;5058129;28;20628;-77
2022/07/17 10:47:15;;;;;;;3.05;1.23;;;28.00;68.30;;;;;;5068520;28;20227;-79
2022/07/17 10:50:12;;;;;;;2.40;1.20;;;30.60;62.70;;;;;;5067097;28;20231;-79
2022/07/17 10:53:05;;;;;;;1.80;1.20;;;32.80;59.40;;;;;;5068651;28;20258;-80
2022/07/17 10:55:56;;;;;;;3.90;1.35;;;31.80;57.90;;;;;;5050648;28;20303;-79
2022/07/17 10:58:45;;;;;;;3.03;1.27;;;34.90;57.90;;;;;;5065342;28;20688;-80
2022/07/17 11:01:34;;;;;;;1.85;1.10;;;32.00;55.40;;;;;;5053215;28;20218;-79
2022/07/17 11:04:23;;;;;;;2.35;1.27;;;30.40;57.20;;;;;;5057928;28;20230;-77
2022/07/17 11:07:11;;;;;;;3.30;1.30;;;28.60;61.20;;;;;;5067913;28;20231;-80
2022/07/17 11:10:00;;;;;;;2.08;1.30;;;27.40;65.60;;;;;;5082785;28;20227;-81
2022/07/17 11:12:49;;;;;;;2.20;1.60;;;26.40;69.30;;;;;;5068189;28;20211;-78
2022/07/17 11:15:44;;;;;;;3.55;1.50;;;25.60;70.10;;;;;;5068654;28;20328;-79
2022/07/17 11:18:35;;;;;;;1.92;1.52;;;25.10;74.50;;;;;;5070918;28;20659;-80
2022/07/17 11:21:23;;;;;;;1.92;1.67;;;25.30;73.60;;;;;;5070042;28;20216;-79
2022/07/17 11:24:12;;;;;;;4.18;2.15;;;26.00;72.20;;;;;;5075616;28;20303;-79
2022/07/17 11:27:01;;;;;;;2.75;1.70;;;25.40;72.20;;;;;;5082164;28;20204;-80
2022/07/17 11:29:51;;;;;;;3.50;1.80;;;25.00;71.70;;;;;;5080014;28;20347;-78
2022/07/17 11:32:42;;;;;;;1.67;1.40;;;24.60;75.10;;;;;;5084337;28;20220;-79
2022/07/17 11:35:31;;;;;;;2.72;1.60;;;24.10;77.50;;;;;;5068492;28;20224;-78
2022/07/17 11:38:31;;;;;;;2.67;1.65;;;23.60;79.80;;;;;;5068212;28;20513;-79
2022/07/17 11:41:20;;;;;;;6.57;1.67;;;23.40;79.40;;;;;;5051430;28;20212;-80
2022/07/17 11:44:12;;;;;;;3.28;1.40;;;23.20;79.30;;;;;;5064200;28;20215;-79
2022/07/17 11:47:01;;;;;;;2.17;1.20;;;23.20;79.80;;;;;;5082518;28;20216;-77
2022/07/17 11:50:07;;;;;;;2.72;1.42;;;23.10;78.90;;;;;;5077415;28;20213;-79
2022/07/17 11:53:02;;;;;;;4.10;1.50;;;23.00;80.20;;;;;;5091115;28;20310;-79
2022/07/17 11:55:51;;;;;;;4.20;2.08;;;23.00;78.90;;;;;;5083000;28;20216;-79
2022/07/17 11:58:45;;;;;;;2.17;1.15;;;22.80;79.70;;;;;;5075974;28;20223;-79
2022/07/17 12:01:40;;;;;;;2.22;1.15;;;22.80;80.30;;;;;;5067490;28;20212;-79
2022/07/17 12:04:28;;;;;;;1.75;1.15;;;22.50;82.80;;;;;;5070311;28;20587;-78
2022/07/17 12:07:18;;;;;;;3.65;1.35;;;22.40;85.20;;;;;;5068864;28;20228;-79
2022/07/17 12:10:13;;;;;;;2.17;1.00;;;22.40;84.50;;;;;;5056026;28;20646;-78
2022/07/17 12:13:05;;;;;;;3.10;1.00;;;22.50;83.20;;;;;;5067929;28;20559;-79
2022/07/17 12:15:54;;;;;;;2.17;1.40;;;22.80;82.40;;;;;;5066204;28;20242;-78
2022/07/17 12:18:42;;;;;;;3.70;2.35;;;22.90;82.20;;;;;;5053856;28;20217;-79
2022/07/17 12:21:33;;;;;;;1.33;0.98;;;22.70;83.40;;;;;;5066021;28;20228;-78
2022/07/17 12:24:27;;;;;;;5.75;1.50;;;23.00;80.20;;;;;;5046923;28;20219;-80
2022/07/17 12:27:17;;;;;;;2.65;1.20;;;24.10;77.70;;;;;;5057575;28;20229;-79
2022/07/17 12:30:07;;;;;;;2.55;1.23;;;25.70;74.60;;;;;;5055370;28;20320;-78
2022/07/17 12:32:55;;;;;;;1.92;1.30;;;28.80;66.30;;;;;;5083699;28;20226;-78
2022/07/17 12:35:44;;;;;;;4.43;1.08;;;31.80;59.70;;;;;;5067698;28;20717;-79
2022/07/17 12:38:33;;;;;;;2.30;1.30;;;30.80;56.30;;;;;;5063086;28;20297;-79
2022/07/17 12:41:23;;;;;;;2.50;1.10;;;29.90;57.50;;;;;;5062405;28;20261;-79
2022/07/17 12:44:11;;;;;;;1.13;1.00;;;29.00;57.50;;;;;;5065356;28;20752;-79
2022/07/17 12:47:00;;;;;;;1.92;1.08;;;28.80;57.00;;;;;;5052562;28;20318;-79
2022/07/17 12:49:49;;;;;;;1.08;0.98;;;28.10;57.30;;;;;;5063010;28;20296;-79
2022/07/17 12:52:37;;;;;;;3.13;0.90;;;27.90;58.60;;;;;;5064832;28;20234;-79
2022/07/17 12:55:26;;;;;;;1.40;0.93;;;26.90;58.40;;;;;;5045733;28;20223;-78
2022/07/17 12:58:16;;;;;;;3.58;1.50;;;26.00;62.20;;;;;;5066245;28;20223;-78
2022/07/17 13:01:06;;;;;;;4.45;1.25;;;25.80;63.60;;;;;;5068427;28;20306;-78
2022/07/17 13:03:55;;;;;;;2.15;1.15;;;25.50;64.30;;;;;;5052050;28;20702;-78
2022/07/17 13:06:44;;;;;;;1.90;1.13;;;25.10;65.50;;;;;;5059968;28;20220;-79
2022/07/17 13:09:32;;;;;;;4.05;0.85;;;24.80;67.00;;;;;;5065053;28;20231;-79
2022/07/17 13:12:22;;;;;;;5.13;1.20;;;24.50;66.00;;;;;;5052518;28;20289;-79
2022/07/17 13:15:12;;;;;;;3.47;1.08;;;24.30;67.90;;;;;;5056632;28;20746;-78
2022/07/17 13:18:01;;;;;;;1.92;0.95;;;24.00;66.60;;;;;;5063526;28;20212;-78
2022/07/17 13:20:50;;;;;;;1.75;1.08;;;23.70;67.70;;;;;;5061100;28;20219;-79
2022/07/17 13:23:39;;;;;;;5.60;1.00;;;23.60;69.10;;;;;;5066811;28;20223;-77
2022/07/17 13:26:28;;;;;;;4.57;1.35;;;23.70;71.20;;;;;;5064818;28;20224;-79
2022/07/17 13:29:16;;;;;;;4.22;1.77;;;23.40;69.10;;;;;;5067018;28;20220;-78
2022/07/17 13:32:08;;;;;;;1.08;0.98;;;23.40;68.60;;;;;;5053680;28;20687;-78
2022/07/17 13:34:57;;;;;;;3.50;2.25;;;23.50;69.10;;;;;;5051533;28;20220;-78
2022/07/17 13:37:46;;;;;;;4.82;1.10;;;23.60;69.60;;;;;;5064813;28;20216;-79
2022/07/17 13:40:35;;;;;;;2.58;1.10;;;23.70;70.50;;;;;;5066593;28;20212;-78
2022/07/17 13:43:23;;;;;;;4.65;1.20;;;23.80;71.00;;;;;;5062855;28;20236;-79
2022/07/17 13:46:12;;;;;;;1.15;1.05;;;24.00;70.80;;;;;;5064539;28;20238;-77
2022/07/17 13:49:02;;;;;;;2.78;1.80;;;24.00;69.70;;;;;;5042079;28;20646;-78
2022/07/17 13:51:51;;;;;;;3.25;1.85;;;24.20;70.50;;;;;;5077483;28;20224;-78
2022/07/17 13:54:41;;;;;;;2.53;1.10;;;24.30;70.30;;;;;;5046636;28;20231;-77
2022/07/17 13:57:29;;;;;;;1.17;0.90;;;24.20;68.90;;;;;;5052927;28;20212;-78
2022/07/17 14:00:18;;;;;;;3.33;1.33;;;24.10;68.50;;;;;;5065266;28;20216;-77
2022/07/17 14:03:07;;;;;;;3.17;1.10;;;24.10;69.90;;;;;;5048278;28;20227;-78
2022/07/17 14:05:57;;;;;;;3.83;0.98;;;24.00;67.80;;;;;;5051050;28;20224;-77
2022/07/17 14:08:46;;;;;;;2.28;0.98;;;23.90;70.30;;;;;;5075694;28;20220;-78
2022/07/17 14:11:36;;;;;;;2.22;1.00;;;23.80;69.30;;;;;;5062233;28;20212;-79
2022/07/17 14:14:25;;;;;;;1.38;0.70;;;23.60;69.10;;;;;;5040659;28;20234;-79
2022/07/17 14:17:17;;;;;;;1.85;0.90;;;23.50;69.60;;;;;;5063690;28;20317;-79
2022/07/17 14:20:07;;;;;;;2.75;1.00;;;23.40;69.00;;;;;;5060998;28;20220;-78
2022/07/17 14:22:57;;;;;;;6.85;3.58;;;23.40;68.20;;;;;;5062582;28;20231;-77
2022/07/17 14:25:45;;;;;;;4.18;1.00;;;23.30;68.20;;;;;;5047214;28;20309;-78
2022/07/17 14:28:34;;;;;;;2.55;0.70;;;23.40;68.50;;;;;;5065415;28;20215;-78
2022/07/17 14:31:22;;;;;;;2.10;0.85;;;23.50;69.00;;;;;;5046601;28;20223;-78
2022/07/17 14:34:11;;;;;;;1.70;0.93;;;23.50;68.90;;;;;;5066195;28;20220;-79
2022/07/17 14:37:02;;;;;;;1.88;0.75;;;23.40;69.70;;;;;;5057622;28;20706;-80
2022/07/17 14:39:54;;;;;;;2.00;1.10;;;23.40;70.90;;;;;;5055436;28;20272;-84
2022/07/17 14:42:43;;;;;;;2.05;0.90;;;23.40;71.20;;;;;;5048616;28;20220;-84
2022/07/17 14:45:31;;;;;;;2.78;0.77;;;23.40;72.40;;;;;;5080317;28;20593;-84